Time;durP1;ratioP1;P1;durP2;ratioP2;P2;SDS_P1;SDS_P2;PMS_P1;PMS_P2;Temp;Humidity;BMP_temperature;BMP_pressure;BME280_temperature;BME280_humidity;BME280_pressure;Samples;Min_cycle;Max_cycle;Signal;HPM_P1;HPM_P2
2023/04/04 00:00:56;;;;;;;12.45;4.60;;;;;;;15.93;69.83;100170.44;12992879;22;96741;-79
2023/04/04 00:06:01;;;;;;;16.52;5.18;;;;;;;15.93;69.90;100166.94;12992759;22;96634;-80
2023/04/04 00:11:16;;;;;;;;;;;;;;;15.84;70.73;100163.06;12992148;22;96637;-80
2023/04/04 00:16:46;;;;;;;13.38;4.68;;;;;;;15.86;70.14;100163.81;12991076;22;96820;-79
2023/04/04 00:21:49;;;;;;;10.55;4.68;;;;;;;15.87;70.48;100162.03;12991979;22;96797;-79
2023/04/04 00:26:56;;;;;;;11.68;3.95;;;;;;;15.84;70.25;100164.84;12992465;22;96652;-79
2023/04/04 00:32:02;;;;;;;13.80;5.32;;;;;;;15.83;70.49;100160.50;12992217;22;96651;-79
2023/04/04 00:37:06;;;;;;;12.60;4.07;;;;;;;15.78;70.59;100173.19;12992455;22;96668;-80
2023/04/04 00:42:11;;;;;;;12.90;3.95;;;;;;;15.76;70.87;100178.59;12992132;22;96568;-80
2023/04/04 00:47:22;;;;;;;;;;;;;;;15.69;71.05;100174.63;12993701;22;96647;-80
2023/04/04 00:52:46;;;;;;;11.18;3.78;;;;;;;15.62;71.23;100175.09;12972840;22;96579;-79
2023/04/04 00:57:52;;;;;;;9.90;3.75;;;;;;;15.72;71.20;100171.78;12927110;22;96605;-79
2023/04/04 01:02:55;;;;;;;12.73;3.90;;;;;;;15.76;70.94;100164.47;12925289;22;96686;-79
2023/04/04 01:07:59;;;;;;;11.23;3.90;;;;;;;15.79;70.70;100166.94;12927360;22;96843;-79
2023/04/04 01:13:03;;;;;;;12.00;3.75;;;;;;;15.78;70.51;100166.09;12926538;22;96770;-79
2023/04/04 01:18:10;;;;;;;15.23;4.05;;;;;;;15.83;70.61;100168.47;12926542;22;96613;-79
2023/04/04 01:23:18;;;;;;;10.80;4.22;;;;;;;15.82;70.81;100159.63;12926417;22;96636;-79
2023/04/04 01:28:23;;;;;;;14.50;4.45;;;;;;;15.81;71.13;100157.09;12926366;22;96628;-79
2023/04/04 01:33:31;;;;;;;15.32;3.63;;;;;;;15.78;71.05;100152.84;12928652;22;96609;-79
2023/04/04 01:38:41;;;;;;;11.80;3.60;;;;;;;15.67;71.42;100155.28;12930509;22;96612;-79
2023/04/04 01:43:46;;;;;;;13.85;3.75;;;;;;;15.56;71.89;100151.59;12929406;22;96895;-79
2023/04/04 01:48:53;;;;;;;13.82;3.58;;;;;;;15.57;71.82;100153.31;12928582;22;96442;-79
2023/04/04 01:53:57;;;;;;;11.85;4.25;;;;;;;15.68;71.44;100145.53;12954915;22;96772;-79
2023/04/04 01:59:06;;;;;;;13.98;4.28;;;;;;;15.64;71.53;100136.91;12994003;22;96894;-79
2023/04/04 02:04:11;;;;;;;13.07;4.22;;;;;;;15.65;71.54;100143.06;12993237;22;96671;-79
2023/04/04 02:09:14;;;;;;;13.43;4.75;;;;;;;15.63;71.30;100137.84;12993811;22;96981;-79
2023/04/04 02:14:21;;;;;;;13.98;6.20;;;;;;;15.49;71.93;100126.41;12993881;22;96955;-79
2023/04/04 02:19:27;;;;;;;13.57;5.22;;;;;;;15.29;72.46;100127.63;12990720;22;96655;-79
2023/04/04 02:24:30;;;;;;;16.27;5.20;;;;;;;15.09;73.37;100122.66;12992623;22;96604;-78
2023/04/04 02:29:38;;;;;;;13.65;5.22;;;;;;;14.91;74.36;100121.06;12994558;22;97259;-78
2023/04/04 02:34:45;;;;;;;12.98;5.85;;;;;;;14.85;74.06;100117.94;12993407;22;96618;-79
2023/04/04 02:40:07;;;;;;;13.77;5.43;;;;;;;14.77;74.41;100107.78;12993356;22;96703;-79
2023/04/04 02:45:18;;;;;;;13.93;5.10;;;;;;;14.74;74.13;100113.28;12992255;22;96718;-78
2023/04/04 02:50:23;;;;;;;12.73;5.60;;;;;;;14.65;74.78;100108.50;12993292;22;96612;-79
2023/04/04 02:55:33;;;;;;;10.63;5.60;;;;;;;14.63;74.91;100110.41;12993669;22;96781;-79
2023/04/04 03:00:53;;;;;;;;;;;;;;;;;;;;;
2023/04/04 03:05:56;;;;;;;12.32;5.90;;;;;;;14.58;75.01;100107.16;12992772;22;96646;-79
2023/04/04 03:11:04;;;;;;;13.88;6.00;;;;;;;14.61;74.86;100107.84;12992440;22;97403;-79
2023/04/04 03:16:15;;;;;;;12.52;5.63;;;;;;;14.62;74.84;100100.75;12993178;22;96738;-79
2023/04/04 03:21:20;;;;;;;12.35;5.57;;;;;;;14.59;75.02;100099.13;12993882;22;96653;-79
2023/04/04 03:26:27;;;;;;;13.07;5.75;;;;;;;14.63;74.96;100091.84;12993133;22;96650;-79
2023/04/04 03:31:35;;;;;;;16.55;6.18;;;;;;;14.61;74.89;100085.78;12992470;22;96967;-79
2023/04/04 03:36:42;;;;;;;16.42;6.50;;;;;;;14.56;75.11;100088.72;12991729;22;96810;-79
2023/04/04 03:41:48;;;;;;;12.50;6.10;;;;;;;14.57;75.19;100081.63;12992555;22;97306;-79
2023/04/04 03:46:59;;;;;;;17.20;6.38;;;;;;;14.42;75.66;100088.66;12992615;22;96695;-79
2023/04/04 03:52:02;;;;;;;14.15;6.22;;;;;;;14.39;75.98;100086.19;12989857;22;96730;-79
2023/04/04 03:57:07;;;;;;;11.95;6.60;;;;;;;14.24;76.63;100094.16;12992656;22;96709;-79
2023/04/04 04:02:16;;;;;;;14.20;6.70;;;;;;;14.12;76.96;100100.16;12992163;22;96744;-78
2023/04/04 04:07:19;;;;;;;15.27;7.25;;;;;;;14.06;77.29;100100.50;12992418;22;96653;-79
2023/04/04 04:12:31;;;;;;;14.30;6.60;;;;;;;13.84;78.20;100095.53;12993391;22;96557;-79
2023/04/04 04:17:39;;;;;;;12.52;6.78;;;;;;;13.75;78.37;100092.50;12992483;22;96670;-79
2023/04/04 04:22:55;;;;;;;12.68;6.63;;;;;;;13.73;78.48;100086.50;12992293;22;97149;-79
2023/04/04 04:28:01;;;;;;;16.13;6.93;;;;;;;13.74;78.58;100089.03;12991053;22;96621;-80
2023/04/04 04:33:05;;;;;;;15.57;6.90;;;;;;;13.62;79.01;100093.19;12992159;22;96644;-79
2023/04/04 04:38:15;;;;;;;16.05;7.57;;;;;;;13.62;79.15;100097.66;12992269;22;97044;-79
2023/04/04 04:43:19;;;;;;;15.15;7.95;;;;;;;13.57;79.60;100105.81;12992031;22;96708;-79
2023/04/04 04:48:23;;;;;;;15.70;7.60;;;;;;;13.51;79.24;100105.28;12991738;22;96718;-79
2023/04/04 04:53:35;;;;;;;18.98;7.15;;;;;;;13.52;79.53;100112.28;12991905;22;96623;-79
2023/04/04 04:58:43;;;;;;;18.10;8.05;;;;;;;13.56;79.39;100114.69;12991824;22;96610;-79
2023/04/04 05:03:50;;;;;;;14.65;8.75;;;;;;;13.59;79.16;100119.81;12993431;22;96980;-79
2023/04/04 05:09:05;;;;;;;;;;;;;;;;;;;;;
2023/04/04 05:14:09;;;;;;;16.75;7.93;;;;;;;13.79;77.74;100142.53;12993375;22;96866;-79
2023/04/04 05:19:13;;;;;;;14.35;8.38;;;;;;;13.82;77.19;100158.22;12993213;22;96670;-79
2023/04/04 05:24:19;;;;;;;14.13;7.50;;;;;;;13.84;77.00;100145.78;12994009;22;96583;-78
2023/04/04 05:29:22;;;;;;;13.48;6.63;;;;;;;13.85;76.56;100155.41;12994329;22;96725;-79
2023/04/04 05:34:32;;;;;;;13.55;6.88;;;;;;;13.89;75.64;100161.38;12993683;22;96793;-80
2023/04/04 05:39:35;;;;;;;11.45;6.18;;;;;;;13.86;75.10;100165.06;12994322;22;96745;-79
2023/04/04 05:44:40;;;;;;;11.85;5.88;;;;;;;13.95;74.65;100153.13;12993934;22;96531;-79
2023/04/04 05:49:54;;;;;;;;;;;;;;;;;;;;;
2023/04/04 05:54:58;;;;;;;14.00;5.57;;;;;;;13.76;74.48;100158.56;12984981;22;96744;-79
2023/04/04 06:00:13;;;;;;;10.23;5.03;;;;;;;13.82;72.91;100165.31;12992783;22;96777;-80
2023/04/04 06:05:17;;;;;;;12.18;4.90;;;;;;;13.88;72.11;100178.22;12993306;22;96743;-80
2023/04/04 06:10:25;;;;;;;9.98;4.45;;;;;;;13.95;71.17;100179.59;12992552;22;96717;-79
2023/04/04 06:15:28;;;;;;;10.05;4.43;;;;;;;13.90;70.85;100186.91;12993435;22;96527;-80
2023/04/04 06:20:37;;;;;;;9.30;4.28;;;;;;;13.91;70.41;100193.91;12993566;22;96624;-80
2023/04/04 06:25:55;;;;;;;9.43;4.00;;;;;;;13.98;69.24;100196.16;12991597;22;97399;-80
2023/04/04 06:31:04;;;;;;;8.13;4.30;;;;;;;13.95;69.21;100214.81;12993485;22;96580;-79
2023/04/04 06:36:09;;;;;;;8.30;4.10;;;;;;;13.99;68.96;100218.16;12993519;22;96850;-79
2023/04/04 06:41:13;;;;;;;6.45;3.65;;;;;;;14.04;67.97;100229.41;12993358;22;97200;-79
2023/04/04 06:46:18;;;;;;;7.22;3.35;;;;;;;13.92;68.53;100227.38;12994524;22;96665;-79
2023/04/04 06:51:28;;;;;;;9.75;4.18;;;;;;;13.93;69.46;100256.38;12992150;22;96814;-79
2023/04/04 06:56:34;;;;;;;6.82;3.63;;;;;;;14.72;67.92;100264.34;12993529;22;96595;-79
2023/04/04 07:01:48;;;;;;;8.75;3.72;;;;;;;15.44;65.46;100275.19;12991962;22;96583;-79
2023/04/04 09:00:26;;;;;;;1.65;1.10;;;;;;;20.13;29.63;100366.19;12870843;22;96848;-82
2023/04/04 09:05:37;;;;;;;3.00;1.10;;;;;;;21.08;29.61;100363.97;12863630;22;96731;-82
2023/04/04 09:10:43;;;;;;;1.30;0.95;;;;;;;20.89;28.70;100374.44;12863207;22;96687;-81
2023/04/04 09:15:51;;;;;;;2.90;0.98;;;;;;;20.64;27.98;100377.34;12863081;22;96738;-81
2023/04/04 09:20:57;;;;;;;3.00;1.10;;;;;;;21.02;28.08;100387.66;12862937;22;96749;-81
2023/04/04 09:26:02;;;;;;;1.67;0.75;;;;;;;22.31;26.80;100390.19;12863340;22;96748;-81
2023/04/04 09:31:11;;;;;;;2.47;1.10;;;;;;;22.41;26.00;100401.81;12862990;22;96662;-82
2023/04/04 09:36:17;;;;;;;1.23;0.88;;;;;;;22.55;25.26;100401.50;12862552;22;96647;-81
2023/04/04 09:41:23;;;;;;;2.30;1.00;;;;;;;22.56;24.90;100397.81;12862635;22;96567;-81
2023/04/04 09:46:31;;;;;;;1.52;0.93;;;;;;;22.16;24.54;100388.81;12861226;22;97172;-81
2023/04/04 09:51:37;;;;;;;1.45;0.90;;;;;;;22.98;24.46;100389.69;12864070;22;96647;-81
2023/04/04 09:56:45;;;;;;;1.55;1.08;;;;;;;22.85;24.35;100394.47;12865531;22;96634;-81
2023/04/04 10:01:54;;;;;;;1.73;0.60;;;;;;;23.60;23.72;100398.34;12902131;22;97260;-81
2023/04/04 10:06:59;;;;;;;1.15;0.70;;;;;;;24.80;23.46;100391.44;12929546;22;96665;-82
2023/04/04 10:12:30;;;;;;;1.27;0.88;;;;;;;23.84;22.94;100384.53;12929354;22;97590;-82
2023/04/04 10:17:41;;;;;;;1.27;0.80;;;;;;;23.78;22.42;100383.25;12922711;22;97232;-81
2023/04/04 10:23:04;;;;;;;0.98;0.68;;;;;;;23.77;22.95;100370.78;12930022;22;96786;-81
2023/04/04 10:28:10;;;;;;;1.88;0.85;;;;;;;23.23;23.09;100368.56;12929011;22;96662;-82
2023/04/04 10:33:37;;;;;;;1.60;0.85;;;;;;;22.79;22.91;100370.84;12928656;22;96731;-81
2023/04/04 10:38:45;;;;;;;2.28;0.85;;;;;;;23.70;23.05;100377.75;12927606;22;96700;-82
2023/04/04 10:43:51;;;;;;;2.15;0.60;;;;;;;24.02;22.29;100375.59;12928792;22;96678;-82
2023/04/04 10:49:16;;;;;;;1.85;0.80;;;;;;;23.94;21.95;100377.31;12928829;22;96664;-82
2023/04/04 10:54:20;;;;;;;0.98;0.70;;;;;;;24.24;21.91;100369.91;12929087;22;97088;-82
2023/04/04 10:59:25;;;;;;;;;;;;;;;23.69;22.34;100358.06;12928998;22;97275;-82
2023/04/04 11:04:34;;;;;;;1.85;0.90;;;;;;;23.90;22.44;100366.00;12928681;22;96838;-82
2023/04/04 11:09:50;;;;;;;1.58;0.82;;;;;;;24.47;21.50;100348.94;12928388;22;96719;-81
2023/04/04 11:15:11;;;;;;;1.00;0.73;;;;;;;;;;12929586;22;96600;-81
2023/04/04 11:20:17;;;;;;;0.95;0.70;;;;;;;24.96;20.43;100334.28;12926358;22;96468;-81
2023/04/04 11:25:50;;;;;;;0.82;0.60;;;;;;;24.48;20.04;100332.63;12928691;22;96665;-82
2023/04/04 11:31:26;;;;;;;1.27;0.70;;;;;;;23.62;20.36;100323.84;12927023;22;96664;-82
2023/04/04 11:36:56;;;;;;;2.97;0.80;;;;;;;24.14;19.55;100322.50;12928442;22;96655;-81
2023/04/04 11:42:05;;;;;;;1.30;1.00;;;;;;;23.52;20.12;100329.19;12927483;22;97388;-80
2023/04/04 11:47:12;;;;;;;1.65;0.70;;;;;;;22.99;19.30;100309.03;12928425;22;97244;-81
2023/04/04 11:52:18;;;;;;;2.90;0.90;;;;;;;22.28;21.37;100314.53;12928264;22;96672;-81
2023/04/04 11:57:21;;;;;;;2.05;1.02;;;;;;;22.58;21.45;100318.06;12928468;22;96639;-81
2023/04/04 12:02:32;;;;;;;1.57;0.70;;;;;;;22.97;20.88;100321.75;12927484;22;96865;-81
2023/04/04 12:07:40;;;;;;;1.60;0.80;;;;;;;22.97;20.23;100307.47;12929300;22;96744;-81
2023/04/04 12:12:45;;;;;;;3.50;1.10;;;;;;;22.50;21.35;100309.84;12927485;22;96747;-81
2023/04/04 12:17:55;;;;;;;1.85;1.13;;;;;;;22.11;22.67;100299.03;12927896;22;96615;-81
2023/04/04 12:23:00;;;;;;;1.17;0.80;;;;;;;21.51;22.65;100299.72;12926496;22;96577;-81
2023/04/04 12:28:08;;;;;;;1.77;0.75;;;;;;;22.05;21.28;100292.41;12928186;22;96794;-81
2023/04/04 12:33:16;;;;;;;2.63;1.00;;;;;;;22.23;20.45;100288.09;12927199;22;96820;-82
2023/04/04 12:38:25;;;;;;;1.25;0.90;;;;;;;21.55;20.66;100281.56;12927678;22;96592;-81
2023/04/04 12:43:29;;;;;;;3.00;1.10;;;;;;;21.80;21.37;100283.84;12927621;22;96632;-81
2023/04/04 12:48:35;;;;;;;1.07;0.70;;;;;;;21.70;20.73;100269.56;12927802;22;96629;-81
2023/04/04 12:53:52;;;;;;;1.17;0.93;;;;;;;21.56;21.16;100272.53;12926560;22;96685;-81
2023/04/04 12:59:02;;;;;;;2.58;0.82;;;;;;;21.32;21.39;100275.47;12926611;22;96698;-81
2023/04/04 13:04:20;;;;;;;;;;;;;;;;;;;;;
2023/04/04 13:09:34;;;;;;;1.80;1.10;;;;;;;22.67;20.96;100273.47;12918292;22;96839;-82
2023/04/04 13:15:01;;;;;;;1.92;1.05;;;;;;;22.76;20.44;100251.19;12925733;22;96821;-81
2023/04/04 13:20:07;;;;;;;1.70;1.10;;;;;;;22.91;20.62;100257.03;12926701;22;96723;-81
2023/04/04 13:25:16;;;;;;;2.47;1.80;;;;;;;22.70;21.31;100248.22;12927934;22;96646;-81
2023/04/04 13:30:22;;;;;;;2.40;0.93;;;;;;;22.79;20.73;100250.09;12929832;22;96644;-81
2023/04/04 13:35:30;;;;;;;2.45;1.30;;;;;;;22.38;19.91;100246.56;12929469;22;96647;-81
2023/04/04 13:40:46;;;;;;;;;;;;;;;;;;;;;
2023/04/04 13:46:12;;;;;;;4.45;1.27;;;;;;;22.52;20.80;100243.47;12920917;22;96954;-81
2023/04/04 13:51:18;;;;;;;1.83;1.08;;;;;;;22.48;20.15;100234.03;12930415;22;96741;-82
2023/04/04 13:56:25;;;;;;;2.22;0.80;;;;;;;22.64;20.13;100231.66;12929392;22;96741;-82
2023/04/04 14:01:28;;;;;;;2.53;1.20;;;;;;;22.88;20.43;100227.78;12928493;22;97584;-80
2023/04/04 14:06:32;;;;;;;2.60;0.90;;;;;;;22.94;20.37;100229.94;12926717;22;97148;-81
2023/04/04 14:11:38;;;;;;;1.83;0.77;;;;;;;22.79;19.73;100223.25;12929222;22;96822;-82
2023/04/04 14:16:47;;;;;;;2.35;0.90;;;;;;;23.05;20.38;100230.66;12929008;22;96610;-81
2023/04/04 14:21:56;;;;;;;1.95;0.70;;;;;;;22.85;19.43;100217.34;12928880;22;96758;-82
2023/04/04 14:27:54;;;;;;;;;;;;;;;;;;;;;
2023/04/04 15:09:16;;;;;;;4.03;1.95;;;;;;;22.89;17.25;100189.25;12928527;22;96588;-82
2023/04/04 15:14:20;;;;;;;8.93;3.50;;;;;;;22.87;16.84;100192.06;12928584;22;96750;-82
2023/04/04 15:19:25;;;;;;;3.83;1.83;;;;;;;23.06;16.83;100191.22;12925592;22;96754;-81
2023/04/04 15:24:32;;;;;;;4.88;2.15;;;;;;;22.94;16.96;100201.25;12928228;22;96713;-83
2023/04/04 15:29:39;;;;;;;7.28;2.55;;;;;;;23.15;17.22;100185.84;12927733;22;96695;-81
2023/04/04 15:34:45;;;;;;;7.65;2.03;;;;;;;23.45;18.16;100184.84;12927691;22;96676;-82
2023/04/04 15:39:56;;;;;;;9.60;3.53;;;;;;;23.30;17.73;100178.22;12929560;22;96620;-83
2023/04/04 15:44:59;;;;;;;3.05;1.10;;;;;;;23.11;17.90;100171.00;12928341;22;96679;-82
2023/04/04 15:50:08;;;;;;;2.28;0.90;;;;;;;23.21;18.38;100173.69;12928084;22;96730;-82
2023/04/04 15:55:17;;;;;;;2.70;1.70;;;;;;;23.22;18.05;100172.69;12926545;22;96653;-83
2023/04/04 16:00:27;;;;;;;3.38;1.50;;;;;;;23.26;18.45;100171.44;12927826;22;96635;-82
2023/04/04 16:05:32;;;;;;;3.38;1.40;;;;;;;23.21;17.97;100168.34;12927470;22;96788;-83
2023/04/04 16:10:42;;;;;;;2.78;1.38;;;;;;;23.10;18.11;100163.94;12928189;22;96664;-83
2023/04/04 16:15:46;;;;;;;2.42;1.38;;;;;;;23.10;18.07;100166.63;12927182;22;97241;-81
2023/04/04 16:20:55;;;;;;;3.63;1.50;;;;;;;23.11;18.41;100159.44;12927622;22;96760;-83
2023/04/04 16:26:01;;;;;;;1.38;0.88;;;;;;;23.03;19.04;100157.47;12928177;22;96633;-82
2023/04/04 16:31:05;;;;;;;3.42;1.55;;;;;;;22.95;18.77;100169.88;12928897;22;96755;-83
2023/04/04 16:36:12;;;;;;;1.58;0.52;;;;;;;22.74;17.57;100163.75;12926094;22;96946;-82
2023/04/04 16:41:18;;;;;;;2.15;1.00;;;;;;;22.64;17.85;100163.78;12927613;22;97018;-83
2023/04/04 16:46:21;;;;;;;1.25;0.60;;;;;;;22.61;17.85;100162.19;12926611;22;96592;-83
2023/04/04 16:51:27;;;;;;;0.80;0.60;;;;;;;22.59;17.45;100156.13;12927244;22;96611;-83
2023/04/04 16:56:33;;;;;;;2.17;0.80;;;;;;;22.57;17.72;100163.44;12927937;22;96764;-83
2023/04/04 17:01:37;;;;;;;2.17;0.73;;;;;;;22.55;17.86;100168.13;12926985;22;96867;-83
2023/04/04 17:06:42;;;;;;;0.85;0.45;;;;;;;22.52;17.46;100168.38;12926474;22;96670;-82
2023/04/04 17:11:47;;;;;;;3.13;1.17;;;;;;;22.49;17.79;100170.50;12927270;22;96638;-83
2023/04/04 17:16:52;;;;;;;1.10;0.65;;;;;;;22.43;17.12;100171.06;12927053;22;96693;-83
2023/04/04 17:21:58;;;;;;;2.08;0.70;;;;;;;22.42;17.31;100170.22;12927871;22;96582;-83
2023/04/04 17:27:02;;;;;;;5.68;3.70;;;;;;;22.37;17.93;100174.28;12926775;22;96741;-84
2023/04/04 17:32:06;;;;;;;2.38;1.65;;;;;;;22.37;18.04;100175.13;12925965;22;96911;-83
2023/04/04 17:37:12;;;;;;;3.85;2.45;;;;;;;22.31;18.19;100185.56;12924733;22;97510;-84
2023/04/04 17:42:17;;;;;;;4.43;2.10;;;;;;;22.22;18.48;100184.56;12926356;22;96501;-83
2023/04/04 17:47:26;;;;;;;6.47;2.60;;;;;;;22.19;17.42;100192.88;12926458;22;96699;-83
2023/04/04 17:52:36;;;;;;;5.35;2.50;;;;;;;22.19;16.77;100195.56;12926307;22;96663;-83
2023/04/04 17:58:01;;;;;;;4.32;1.48;;;;;;;22.15;17.24;100196.81;12915665;22;96658;-82
2023/04/04 18:03:06;;;;;;;1.77;1.08;;;;;;;22.14;17.41;100207.66;12926163;22;97246;-83
2023/04/04 18:08:10;;;;;;;0.82;0.70;;;;;;;22.10;17.50;100203.53;12925757;22;96818;-82
2023/04/04 18:13:15;;;;;;;;;;;;;;;21.92;17.90;100207.78;12929916;22;96599;-84
2023/04/04 18:18:20;;;;;;;0.90;0.60;;;;;;;21.84;17.78;100207.59;12929044;22;97380;-83
2023/04/04 18:23:26;;;;;;;2.60;1.60;;;;;;;21.56;19.68;100206.47;12929380;22;96658;-83
2023/04/04 18:28:32;;;;;;;3.03;1.73;;;;;;;21.23;21.52;100214.66;12928241;22;96997;-83
2023/04/04 18:33:35;;;;;;;3.75;1.60;;;;;;;20.94;23.24;100210.88;12928827;22;96730;-82
2023/04/04 18:38:38;;;;;;;1.33;1.13;;;;;;;20.70;24.31;100231.59;12928837;22;96550;-83
2023/04/04 18:43:50;;;;;;;1.67;0.90;;;;;;;20.35;25.94;100232.63;12927983;22;96851;-83
2023/04/04 18:48:56;;;;;;;2.42;0.98;;;;;;;20.08;26.92;100242.78;12928806;22;96715;-83
2023/04/04 19:42:07;;;;;;;4.30;2.80;;;;;;;18.13;32.06;100341.88;12884240;22;97341;-83
2023/04/04 19:47:12;;;;;;;3.42;2.20;;;;;;;18.03;31.24;100348.78;12864559;22;96674;-82
2023/04/04 19:52:17;;;;;;;3.70;1.70;;;;;;;18.06;30.25;100364.56;12864450;22;96814;-82
2023/04/04 19:57:27;;;;;;;3.60;2.03;;;;;;;17.88;31.69;100370.28;12864175;22;96667;-83
2023/04/04 20:02:49;;;;;;;5.13;2.38;;;;;;;17.73;31.36;100381.94;12865075;22;96755;-82
2023/04/04 20:07:53;;;;;;;3.75;2.10;;;;;;;17.74;30.14;100399.63;12864104;22;96728;-82
2023/04/04 20:12:57;;;;;;;2.72;1.90;;;;;;;17.74;29.46;100399.63;12863297;22;97013;-83
2023/04/04 20:18:01;;;;;;;2.53;1.58;;;;;;;17.77;28.89;100416.25;12862851;22;96741;-82
2023/04/04 20:23:06;;;;;;;2.70;1.70;;;;;;;17.84;29.21;100427.34;12863775;22;96707;-82
2023/04/04 20:28:22;;;;;;;3.05;1.80;;;;;;;17.79;29.07;100440.09;12863948;22;96687;-82
2023/04/04 20:33:34;;;;;;;2.60;1.60;;;;;;;17.79;28.13;100448.09;12863456;22;96737;-82
2023/04/04 20:38:41;;;;;;;3.00;1.90;;;;;;;17.66;28.74;100445.38;12863649;22;96611;-82
2023/04/04 20:43:53;;;;;;;3.30;1.60;;;;;;;17.62;28.04;100459.81;12925152;22;97323;-82
2023/04/04 20:48:59;;;;;;;3.90;1.70;;;;;;;17.65;27.72;100464.97;12927494;22;96629;-83
2023/04/04 20:54:39;;;;;;;;;;;;;;;;;;;;;
2023/04/04 21:48:13;;;;;;;2.53;1.55;;;;;;;16.44;29.35;100522.25;12913958;22;96770;-82
2023/04/04 21:53:21;;;;;;;3.72;1.83;;;;;;;16.28;30.44;100524.03;12930451;22;96878;-82
2023/04/04 21:58:32;;;;;;;2.78;1.55;;;;;;;16.13;30.62;100522.28;12928890;22;97011;-82
2023/04/04 22:03:37;;;;;;;3.83;2.15;;;;;;;15.93;31.61;100521.72;12929288;22;96640;-82
2023/04/04 22:08:40;;;;;;;6.35;2.17;;;;;;;15.77;32.49;100524.38;12928067;22;96622;-83
2023/04/04 22:13:47;;;;;;;3.25;1.50;;;;;;;15.71;31.90;100535.34;12929199;22;96634;-82
2023/04/04 22:18:51;;;;;;;2.65;1.42;;;;;;;15.82;31.01;100546.22;12929158;22;96922;-83
2023/04/04 22:23:59;;;;;;;2.10;1.30;;;;;;;15.91;30.47;100562.47;12928864;22;96778;-83
2023/04/04 22:29:07;;;;;;;3.42;1.40;;;;;;;15.84;30.55;100561.09;12928818;22;96670;-83
2023/04/04 22:34:21;;;;;;;3.40;1.35;;;;;;;15.83;30.82;100555.88;12928223;22;96856;-83
2023/04/04 22:39:24;;;;;;;3.22;1.30;;;;;;;15.72;31.69;100567.09;12927688;22;96773;-82
2023/04/04 22:44:28;;;;;;;2.75;1.20;;;;;;;15.64;31.60;100569.31;12930056;22;97104;-83
2023/04/04 22:49:36;;;;;;;1.63;1.05;;;;;;;15.53;32.08;100570.84;12928359;22;96867;-82
2023/04/04 22:55:01;;;;;;;2.92;1.17;;;;;;;15.42;32.94;100581.19;12927264;22;96779;-83
2023/04/04 23:00:27;;;;;;;4.15;1.25;;;;;;;15.30;33.26;100572.09;12923750;22;97020;-82
2023/04/04 23:05:31;;;;;;;2.25;1.42;;;;;;;15.18;34.18;100583.31;12928204;22;96799;-82
2023/04/04 23:10:37;;;;;;;3.75;1.63;;;;;;;15.21;34.22;100591.13;12928450;22;97286;-82
2023/04/04 23:15:43;;;;;;;1.83;1.27;;;;;;;15.09;34.78;100598.84;12928036;22;97184;-82
2023/04/04 23:20:47;;;;;;;2.55;1.23;;;;;;;15.12;34.16;100594.25;12927762;22;96654;-82
2023/04/04 23:25:53;;;;;;;2.63;1.50;;;;;;;15.13;34.44;100593.31;12927757;22;96975;-82
2023/04/04 23:30:56;;;;;;;3.53;1.40;;;;;;;15.12;34.49;100596.91;12928455;22;96530;-81
2023/04/04 23:36:01;;;;;;;3.03;1.38;;;;;;;14.94;34.69;100603.16;12929417;22;96623;-82
2023/04/04 23:41:06;;;;;;;2.33;1.10;;;;;;;14.61;37.12;100611.03;12928177;22;96630;-83
2023/04/04 23:46:23;;;;;;;;;;;;;;;;;;;;;
